createdAt,value
2018-04-27T00:00:01.524Z,1013.34
2018-04-27T00:00:40.478Z,1013.30
2018-04-27T00:02:01.473Z,1013.30
2018-04-27T00:02:40.423Z,1013.31
2018-04-27T00:03:40.453Z,1013.32
2018-04-27T00:05:01.525Z,1013.33
2018-04-27T00:05:40.424Z,1013.31
2018-04-27T00:07:01.449Z,1013.30
2018-04-27T00:07:40.441Z,1013.33
2018-04-27T00:08:40.448Z,1013.29
2018-04-27T00:10:01.440Z,1013.28
2018-04-27T00:10:40.440Z,1013.27
2018-04-27T00:12:01.438Z,1013.23
2018-04-27T00:12:40.399Z,1013.26
2018-04-27T00:13:40.431Z,1013.21
2018-04-27T00:15:01.438Z,1013.22
2018-04-27T00:15:40.425Z,1013.21
2018-04-27T00:17:01.421Z,1013.23
2018-04-27T00:17:40.405Z,1013.23
2018-04-27T00:18:40.439Z,1013.25
2018-04-27T00:20:01.390Z,1013.23
2018-04-27T00:20:40.383Z,1013.27
2018-04-27T00:22:01.360Z,1013.24
2018-04-27T00:22:40.393Z,1013.23
2018-04-27T00:23:40.344Z,1013.23
2018-04-27T00:25:01.420Z,1013.24
2018-04-27T00:25:40.359Z,1013.29
2018-04-27T00:27:01.360Z,1013.25
2018-04-27T00:27:40.369Z,1013.24
2018-04-27T00:28:40.365Z,1013.25
2018-04-27T00:30:01.354Z,1013.21
2018-04-27T00:30:40.327Z,1013.23
2018-04-27T00:32:01.358Z,1013.20
2018-04-27T00:32:40.333Z,1013.17
2018-04-27T00:33:40.324Z,1013.16
2018-04-27T00:35:01.319Z,1013.17
2018-04-27T00:35:40.295Z,1013.16
2018-04-27T00:37:01.296Z,1013.13
2018-04-27T00:37:40.310Z,1013.12
2018-04-27T00:38:40.330Z,1013.11
2018-04-27T00:40:01.315Z,1013.11
2018-04-27T00:40:40.291Z,1013.12
2018-04-27T00:42:01.288Z,1013.11
2018-04-27T00:42:40.298Z,1013.11
2018-04-27T00:43:40.274Z,1013.11
2018-04-27T00:45:01.289Z,1013.09
2018-04-27T00:45:40.281Z,1013.11
2018-04-27T00:47:01.309Z,1013.05
2018-04-27T00:47:40.270Z,1013.04
2018-04-27T00:48:40.249Z,1013.05
2018-04-27T00:50:01.263Z,1013.06
2018-04-27T00:50:40.225Z,1013.08
2018-04-27T00:52:01.269Z,1013.03
2018-04-27T00:52:40.251Z,1013.01
2018-04-27T00:53:40.259Z,1013.00
2018-04-27T00:55:01.239Z,1012.99
2018-04-27T00:55:40.218Z,1013.00
2018-04-27T00:57:01.235Z,1013.00
2018-04-27T00:57:40.169Z,1012.97
2018-04-27T00:58:40.211Z,1012.95
2018-04-27T01:00:01.202Z,1012.95
2018-04-27T01:00:40.203Z,1012.91
2018-04-27T01:02:01.220Z,1012.97
2018-04-27T01:02:40.185Z,1012.97
2018-04-27T01:03:40.227Z,1012.96
2018-04-27T01:05:01.224Z,1012.95
2018-04-27T01:05:40.186Z,1012.97
2018-04-27T01:07:01.180Z,1012.98
2018-04-27T01:07:40.203Z,1012.96
2018-04-27T01:08:40.144Z,1012.95
2018-04-27T01:10:01.161Z,1012.93
2018-04-27T01:10:40.133Z,1012.92
2018-04-27T01:12:01.145Z,1012.85
2018-04-27T01:12:40.142Z,1012.88
2018-04-27T01:13:40.151Z,1012.90
2018-04-27T01:15:01.148Z,1012.89
2018-04-27T01:15:40.102Z,1012.87
2018-04-27T01:17:01.136Z,1012.83
2018-04-27T01:17:40.121Z,1012.82
2018-04-27T01:18:40.096Z,1012.83
2018-04-27T01:20:01.142Z,1012.80
2018-04-27T01:20:40.082Z,1012.83
2018-04-27T01:22:01.102Z,1012.84
2018-04-27T01:22:40.108Z,1012.81
2018-04-27T01:23:40.096Z,1012.79
2018-04-27T01:25:01.107Z,1012.78
2018-04-27T01:25:40.096Z,1012.78
2018-04-27T01:27:01.083Z,1012.75
2018-04-27T01:27:40.067Z,1012.80
2018-04-27T01:28:40.087Z,1012.81
2018-04-27T01:30:01.088Z,1012.84
2018-04-27T01:30:40.076Z,1012.81
2018-04-27T01:32:01.101Z,1012.82
2018-04-27T01:32:40.066Z,1012.79
2018-04-27T01:33:40.076Z,1012.78
2018-04-27T01:35:01.084Z,1012.79
2018-04-27T01:35:40.037Z,1012.77
2018-04-27T01:37:01.044Z,1012.75
2018-04-27T01:37:40.032Z,1012.75
2018-04-27T01:38:40.045Z,1012.77
2018-04-27T01:40:01.037Z,1012.79
2018-04-27T01:40:39.982Z,1012.80
2018-04-27T01:42:01.030Z,1012.79
2018-04-27T01:42:40.025Z,1012.76
2018-04-27T01:43:39.966Z,1012.73
2018-04-27T01:45:00.992Z,1012.71
2018-04-27T01:45:39.995Z,1012.69
2018-04-27T01:47:01.026Z,1012.69
2018-04-27T01:47:40.013Z,1012.67
2018-04-27T01:48:39.997Z,1012.67
2018-04-27T01:50:00.983Z,1012.67
2018-04-27T01:50:39.958Z,1012.66
2018-04-27T01:52:00.988Z,1012.69
2018-04-27T01:52:39.983Z,1012.64
2018-04-27T01:53:39.955Z,1012.68
2018-04-27T01:55:00.981Z,1012.66
2018-04-27T01:55:39.927Z,1012.65
2018-04-27T01:57:01.029Z,1012.65
2018-04-27T01:57:39.953Z,1012.64
2018-04-27T01:58:39.914Z,1012.64
2018-04-27T02:00:00.956Z,1012.62
2018-04-27T02:00:39.928Z,1012.60
2018-04-27T02:02:00.946Z,1012.62
2018-04-27T02:02:39.913Z,1012.61
2018-04-27T02:03:39.892Z,1012.61
2018-04-27T02:05:00.914Z,1012.61
2018-04-27T02:05:39.893Z,1012.64
2018-04-27T02:07:00.922Z,1012.57
2018-04-27T02:07:39.922Z,1012.57
2018-04-27T02:08:39.883Z,1012.57
2018-04-27T02:10:00.888Z,1012.59
2018-04-27T02:10:39.865Z,1012.61
2018-04-27T02:12:00.874Z,1012.58
2018-04-27T02:12:39.898Z,1012.57
2018-04-27T02:13:39.864Z,1012.55
2018-04-27T02:15:00.858Z,1012.51
2018-04-27T02:15:39.856Z,1012.50
2018-04-27T02:17:00.877Z,1012.51
2018-04-27T02:17:39.848Z,1012.50
2018-04-27T02:18:39.839Z,1012.44
2018-04-27T02:20:00.845Z,1012.44
2018-04-27T02:20:39.838Z,1012.44
2018-04-27T02:22:00.841Z,1012.39
2018-04-27T02:22:39.830Z,1012.43
2018-04-27T02:23:39.842Z,1012.42
2018-04-27T02:25:00.797Z,1012.43
2018-04-27T02:25:39.812Z,1012.42
2018-04-27T02:27:00.809Z,1012.40
2018-04-27T02:27:39.792Z,1012.43
2018-04-27T02:28:39.817Z,1012.42
2018-04-27T02:30:00.792Z,1012.39
2018-04-27T02:30:39.787Z,1012.39
2018-04-27T02:32:00.779Z,1012.40
2018-04-27T02:32:39.759Z,1012.43
2018-04-27T02:33:39.784Z,1012.36
2018-04-27T02:35:00.752Z,1012.43
2018-04-27T02:35:39.773Z,1012.40
2018-04-27T02:37:00.757Z,1012.39
2018-04-27T02:37:39.747Z,1012.38
2018-04-27T02:38:39.733Z,1012.39
2018-04-27T02:40:00.762Z,1012.41
2018-04-27T02:40:39.748Z,1012.38
2018-04-27T02:42:00.731Z,1012.35
2018-04-27T02:42:39.721Z,1012.33
2018-04-27T02:43:39.687Z,1012.35
2018-04-27T02:45:00.728Z,1012.35
2018-04-27T02:45:39.711Z,1012.30
2018-04-27T02:47:00.771Z,1012.33
2018-04-27T02:47:39.743Z,1012.33
2018-04-27T02:48:39.705Z,1012.33
2018-04-27T02:50:00.708Z,1012.27
2018-04-27T02:50:39.703Z,1012.30
2018-04-27T02:52:00.717Z,1012.24
2018-04-27T02:52:39.691Z,1012.21
2018-04-27T02:53:39.702Z,1012.24
2018-04-27T02:55:00.713Z,1012.22
2018-04-27T02:55:39.687Z,1012.24
2018-04-27T02:57:00.682Z,1012.22
2018-04-27T02:57:39.664Z,1012.24
2018-04-27T02:58:39.695Z,1012.25
2018-04-27T03:00:00.661Z,1012.25
2018-04-27T03:00:39.645Z,1012.25
2018-04-27T03:02:00.632Z,1012.23
2018-04-27T03:02:39.646Z,1012.23
2018-04-27T03:03:39.638Z,1012.23
2018-04-27T03:05:00.686Z,1012.22
2018-04-27T03:05:39.649Z,1012.21
2018-04-27T03:07:00.632Z,1012.23
2018-04-27T03:07:39.630Z,1012.21
2018-04-27T03:08:39.631Z,1012.22
2018-04-27T03:10:00.595Z,1012.21
2018-04-27T03:10:39.612Z,1012.21
2018-04-27T03:12:00.612Z,1012.18
2018-04-27T03:12:39.599Z,1012.17
2018-04-27T03:13:39.567Z,1012.10
2018-04-27T03:15:00.599Z,1012.15
2018-04-27T03:15:39.579Z,1012.14
2018-04-27T03:17:00.602Z,1012.15
2018-04-27T03:17:39.577Z,1012.12
2018-04-27T03:18:39.569Z,1012.17
2018-04-27T03:20:00.560Z,1012.13
2018-04-27T03:20:39.563Z,1012.12
2018-04-27T03:22:00.542Z,1012.13
2018-04-27T03:22:39.540Z,1012.13
2018-04-27T03:23:39.606Z,1012.12
2018-04-27T03:25:00.585Z,1012.09
2018-04-27T03:25:39.523Z,1012.05
2018-04-27T03:27:00.558Z,1012.04
2018-04-27T03:27:39.510Z,1012.02
2018-04-27T03:28:39.527Z,1012.04
2018-04-27T03:30:00.521Z,1012.01
2018-04-27T03:30:39.548Z,1011.96
2018-04-27T03:32:00.503Z,1011.97
2018-04-27T03:32:39.507Z,1011.97
2018-04-27T03:33:39.488Z,1011.99
2018-04-27T03:35:00.518Z,1011.98
2018-04-27T03:35:39.485Z,1011.95
2018-04-27T03:37:00.488Z,1011.92
2018-04-27T03:37:39.466Z,1011.93
2018-04-27T03:38:39.475Z,1011.93
2018-04-27T03:40:00.469Z,1011.91
2018-04-27T03:40:39.464Z,1011.84
2018-04-27T03:42:00.474Z,1011.80
2018-04-27T03:42:39.450Z,1011.78
2018-04-27T03:43:39.484Z,1011.78
2018-04-27T03:45:00.463Z,1011.80
2018-04-27T03:45:39.439Z,1011.77
2018-04-27T03:47:00.459Z,1011.72
2018-04-27T03:47:39.455Z,1011.70
2018-04-27T03:48:39.409Z,1011.67
2018-04-27T03:50:00.415Z,1011.67
2018-04-27T03:50:39.420Z,1011.61
2018-04-27T03:52:00.515Z,1011.66
2018-04-27T03:52:39.432Z,1011.65
2018-04-27T03:53:39.403Z,1011.63
2018-04-27T03:55:00.387Z,1011.65
2018-04-27T03:55:39.397Z,1011.67
2018-04-27T03:57:00.388Z,1011.64
2018-04-27T03:57:39.371Z,1011.63
2018-04-27T03:58:39.366Z,1011.62
2018-04-27T04:00:00.393Z,1011.63
2018-04-27T04:00:39.378Z,1011.64
2018-04-27T04:02:00.400Z,1011.64
2018-04-27T04:02:39.355Z,1011.60
2018-04-27T04:03:39.334Z,1011.61
2018-04-27T04:05:00.365Z,1011.63
2018-04-27T04:05:39.339Z,1011.61
2018-04-27T04:07:00.352Z,1011.62
2018-04-27T04:07:39.349Z,1011.62
2018-04-27T04:08:39.333Z,1011.60
2018-04-27T04:10:00.339Z,1011.58
2018-04-27T04:10:39.337Z,1011.58
2018-04-27T04:12:00.328Z,1011.56
2018-04-27T04:12:39.304Z,1011.57
2018-04-27T04:13:39.317Z,1011.53
2018-04-27T04:15:00.320Z,1011.54
2018-04-27T04:15:39.302Z,1011.50
2018-04-27T04:17:00.318Z,1011.51
2018-04-27T04:17:39.313Z,1011.53
2018-04-27T04:18:39.299Z,1011.49
2018-04-27T04:20:00.279Z,1011.47
2018-04-27T04:20:39.284Z,1011.51
2018-04-27T04:22:00.273Z,1011.52
2018-04-27T04:22:39.279Z,1011.50
2018-04-27T04:23:39.253Z,1011.49
2018-04-27T04:25:00.236Z,1011.45
2018-04-27T04:25:39.253Z,1011.48
2018-04-27T04:27:00.258Z,1011.48
2018-04-27T04:27:39.230Z,1011.44
2018-04-27T04:28:39.238Z,1011.41
2018-04-27T04:30:00.322Z,1011.40
2018-04-27T04:30:39.225Z,1011.38
2018-04-27T04:32:00.229Z,1011.37
2018-04-27T04:32:39.214Z,1011.37
2018-04-27T04:33:39.207Z,1011.35
2018-04-27T04:35:00.238Z,1011.37
2018-04-27T04:35:39.248Z,1011.32
2018-04-27T04:37:00.208Z,1011.34
2018-04-27T04:37:39.223Z,1011.34
2018-04-27T04:38:39.214Z,1011.29
2018-04-27T04:40:00.193Z,1011.26
2018-04-27T04:40:39.176Z,1011.25
2018-04-27T04:42:00.195Z,1011.25
2018-04-27T04:42:39.220Z,1011.26
2018-04-27T04:43:39.165Z,1011.28
2018-04-27T04:45:00.169Z,1011.25
2018-04-27T04:45:39.165Z,1011.22
2018-04-27T04:47:00.190Z,1011.21
2018-04-27T04:47:39.172Z,1011.19
2018-04-27T04:48:39.161Z,1011.18
2018-04-27T04:50:00.149Z,1011.16
2018-04-27T04:50:39.113Z,1011.17
2018-04-27T04:52:00.140Z,1011.12
2018-04-27T04:52:39.136Z,1011.12
2018-04-27T04:53:39.114Z,1011.10
2018-04-27T04:55:00.095Z,1011.10
2018-04-27T04:55:39.139Z,1011.12
2018-04-27T04:57:00.124Z,1011.09
2018-04-27T04:57:39.116Z,1011.11
2018-04-27T04:58:39.112Z,1011.13
2018-04-27T05:00:00.114Z,1011.16
2018-04-27T05:00:39.099Z,1011.17
2018-04-27T05:02:00.131Z,1011.19
2018-04-27T05:02:39.162Z,1011.18
2018-04-27T05:03:39.069Z,1011.23
2018-04-27T05:05:00.079Z,1011.23
2018-04-27T05:05:39.074Z,1011.20
2018-04-27T05:07:00.090Z,1011.21
2018-04-27T05:07:39.049Z,1011.17
2018-04-27T05:08:39.051Z,1011.17
2018-04-27T05:10:00.090Z,1011.19
2018-04-27T05:10:39.097Z,1011.22
2018-04-27T05:12:00.034Z,1011.24
2018-04-27T05:12:39.039Z,1011.24
2018-04-27T05:13:39.035Z,1011.25
2018-04-27T05:15:00.071Z,1011.21
2018-04-27T05:15:39.016Z,1011.22
2018-04-27T05:17:00.010Z,1011.17
2018-04-27T05:17:39.045Z,1011.22
2018-04-27T05:18:38.996Z,1011.17
2018-04-27T05:20:00.051Z,1011.15
2018-04-27T05:20:39.029Z,1011.17
2018-04-27T05:22:00.023Z,1011.18
2018-04-27T05:22:39.015Z,1011.13
2018-04-27T05:23:38.985Z,1011.10
2018-04-27T05:24:59.997Z,1011.11
2018-04-27T05:25:38.975Z,1011.14
2018-04-27T05:26:59.980Z,1011.11
2018-04-27T05:27:38.981Z,1011.12
2018-04-27T05:28:38.966Z,1011.14
2018-04-27T05:29:59.950Z,1011.17
2018-04-27T05:30:38.905Z,1011.17
2018-04-27T05:31:59.969Z,1011.15
2018-04-27T05:32:38.937Z,1011.16
2018-04-27T05:33:38.936Z,1011.16
2018-04-27T05:34:59.943Z,1011.12
2018-04-27T05:35:38.935Z,1011.10
2018-04-27T05:36:59.929Z,1011.15
2018-04-27T05:37:38.940Z,1011.14
2018-04-27T05:38:38.918Z,1011.15
2018-04-27T05:39:59.914Z,1011.14
2018-04-27T05:40:38.995Z,1011.14
2018-04-27T05:41:59.899Z,1011.09
2018-04-27T05:42:38.871Z,1011.06
2018-04-27T05:43:38.901Z,1011.07
2018-04-27T05:44:59.910Z,1011.05
2018-04-27T05:45:38.875Z,1011.08
2018-04-27T05:46:59.881Z,1011.09
2018-04-27T05:47:38.859Z,1011.12
2018-04-27T05:48:38.866Z,1011.12
2018-04-27T05:49:59.887Z,1011.08
2018-04-27T05:50:38.870Z,1011.10
2018-04-27T05:51:59.864Z,1011.08
2018-04-27T05:52:38.874Z,1011.05
2018-04-27T05:53:38.863Z,1011.05
2018-04-27T05:54:59.831Z,1011.03
2018-04-27T05:55:38.888Z,1011.03
2018-04-27T05:56:59.885Z,1010.99
2018-04-27T05:57:38.826Z,1011.02
2018-04-27T05:58:38.816Z,1011.01
2018-04-27T05:59:59.826Z,1010.97
2018-04-27T06:00:38.814Z,1010.94
2018-04-27T06:01:59.823Z,1010.93
2018-04-27T06:02:38.854Z,1010.91
2018-04-27T06:03:38.790Z,1010.94
2018-04-27T06:04:59.785Z,1010.94
2018-04-27T06:05:38.785Z,1010.90
2018-04-27T06:06:59.838Z,1010.94
2018-04-27T06:07:38.761Z,1010.92
2018-04-27T06:08:38.741Z,1010.92
2018-04-27T06:09:59.774Z,1010.93
2018-04-27T06:10:38.760Z,1010.96
2018-04-27T06:11:59.779Z,1010.95
2018-04-27T06:12:38.807Z,1010.97
2018-04-27T06:13:38.770Z,1010.94
2018-04-27T06:14:59.790Z,1010.95
2018-04-27T06:15:38.734Z,1010.95
2018-04-27T06:16:59.741Z,1010.88
2018-04-27T06:17:38.712Z,1010.92
2018-04-27T06:18:38.726Z,1010.90
2018-04-27T06:19:59.716Z,1010.89
2018-04-27T06:20:38.726Z,1010.88
2018-04-27T06:21:59.728Z,1010.90
2018-04-27T06:22:38.707Z,1010.84
2018-04-27T06:23:38.700Z,1010.83
2018-04-27T06:24:59.717Z,1010.82
2018-04-27T06:25:38.821Z,1010.84
2018-04-27T06:26:59.720Z,1010.81
2018-04-27T06:27:38.696Z,1010.79
2018-04-27T06:28:38.689Z,1010.81
2018-04-27T06:29:59.710Z,1010.80
2018-04-27T06:30:38.721Z,1010.77
2018-04-27T06:31:59.680Z,1010.76
2018-04-27T06:32:38.662Z,1010.73
2018-04-27T06:33:38.630Z,1010.72
2018-04-27T06:34:59.649Z,1010.74
2018-04-27T06:35:38.645Z,1010.72
2018-04-27T06:36:59.687Z,1010.70
2018-04-27T06:37:38.617Z,1010.65
2018-04-27T06:38:38.661Z,1010.65
2018-04-27T06:39:59.651Z,1010.66
2018-04-27T06:40:38.634Z,1010.64
2018-04-27T06:41:59.639Z,1010.63
2018-04-27T06:42:38.629Z,1010.63
2018-04-27T06:43:38.583Z,1010.63
2018-04-27T06:44:59.597Z,1010.60
2018-04-27T06:45:38.597Z,1010.59
2018-04-27T06:46:59.630Z,1010.57
2018-04-27T06:47:38.577Z,1010.58
2018-04-27T06:48:38.615Z,1010.52
2018-04-27T06:49:59.660Z,1010.56
2018-04-27T06:50:38.614Z,1010.50
2018-04-27T06:51:59.578Z,1010.52
2018-04-27T06:52:38.574Z,1010.55
2018-04-27T06:53:38.605Z,1010.52
2018-04-27T06:54:59.565Z,1010.55
2018-04-27T06:55:38.557Z,1010.57
2018-04-27T06:56:59.595Z,1010.52
2018-04-27T06:57:38.565Z,1010.54
2018-04-27T06:58:38.540Z,1010.57
2018-04-27T06:59:59.550Z,1010.55
2018-04-27T07:00:38.535Z,1010.54
2018-04-27T07:01:59.541Z,1010.56
2018-04-27T07:02:38.578Z,1010.54
2018-04-27T07:03:38.492Z,1010.55
2018-04-27T07:04:59.511Z,1010.56
2018-04-27T07:05:38.502Z,1010.54
2018-04-27T07:06:59.512Z,1010.52
2018-04-27T07:07:38.501Z,1010.50
2018-04-27T07:08:38.502Z,1010.52
2018-04-27T07:09:59.490Z,1010.46
2018-04-27T07:10:38.508Z,1010.47
2018-04-27T07:11:59.476Z,1010.44
2018-04-27T07:12:38.484Z,1010.42
2018-04-27T07:13:38.461Z,1010.37
2018-04-27T07:14:59.461Z,1010.35
2018-04-27T07:15:38.458Z,1010.30
2018-04-27T07:16:59.582Z,1010.26
2018-04-27T07:17:38.450Z,1010.26
2018-04-27T07:18:38.476Z,1010.26
2018-04-27T07:19:59.459Z,1010.28
2018-04-27T07:20:38.465Z,1010.23
2018-04-27T07:21:59.462Z,1010.27
2018-04-27T07:22:38.438Z,1010.27
2018-04-27T07:23:38.411Z,1010.22
2018-04-27T07:24:59.405Z,1010.23
2018-04-27T07:25:38.463Z,1010.22
2018-04-27T07:26:59.412Z,1010.16
2018-04-27T07:27:38.448Z,1010.15
2018-04-27T07:28:38.436Z,1010.12
2018-04-27T07:29:59.448Z,1010.05
2018-04-27T07:30:38.369Z,1010.09
2018-04-27T07:31:59.407Z,1010.07
2018-04-27T07:32:38.377Z,1010.14
2018-04-27T07:33:38.361Z,1010.13
2018-04-27T07:34:59.398Z,1010.16
2018-04-27T07:35:38.396Z,1010.21
2018-04-27T07:36:59.392Z,1010.17
2018-04-27T07:37:38.353Z,1010.18
2018-04-27T07:38:38.334Z,1010.21
2018-04-27T07:39:59.392Z,1010.22
2018-04-27T07:40:38.354Z,1010.26
2018-04-27T07:41:59.371Z,1010.21
2018-04-27T07:42:38.364Z,1010.19
2018-04-27T07:43:38.327Z,1010.16
2018-04-27T07:44:59.339Z,1010.13
2018-04-27T07:45:38.344Z,1010.09
2018-04-27T07:46:59.313Z,1010.10
2018-04-27T07:47:38.331Z,1010.07
2018-04-27T07:48:38.323Z,1010.08
2018-04-27T07:49:59.309Z,1010.06
2018-04-27T07:50:38.293Z,1010.08
2018-04-27T07:51:59.327Z,1010.07
2018-04-27T07:52:38.289Z,1010.09
2018-04-27T07:53:38.301Z,1010.03
2018-04-27T07:54:59.364Z,1010.07
2018-04-27T07:55:38.302Z,1010.06
2018-04-27T07:56:59.283Z,1010.07
2018-04-27T07:57:38.302Z,1010.06
2018-04-27T07:58:38.267Z,1010.05
2018-04-27T07:59:59.263Z,1010.01
2018-04-27T08:00:38.292Z,1010.01
2018-04-27T08:01:59.273Z,1010.01
2018-04-27T08:02:38.258Z,1009.99
2018-04-27T08:03:38.327Z,1009.99
2018-04-27T08:04:59.257Z,1009.98
2018-04-27T08:05:38.249Z,1009.97
2018-04-27T08:06:59.233Z,1010.01
2018-04-27T08:07:38.232Z,1009.96
2018-04-27T08:08:38.217Z,1009.93
2018-04-27T08:09:59.232Z,1009.92
2018-04-27T08:10:38.210Z,1009.91
2018-04-27T08:11:59.269Z,1009.92
2018-04-27T08:12:38.214Z,1009.94
2018-04-27T08:13:38.216Z,1009.88
2018-04-27T08:14:59.190Z,1009.90
2018-04-27T08:15:38.207Z,1009.93
2018-04-27T08:16:59.218Z,1009.90
2018-04-27T08:17:38.169Z,1009.93
2018-04-27T08:18:38.284Z,1009.90
2018-04-27T08:19:59.198Z,1009.90
2018-04-27T08:20:38.191Z,1009.89
2018-04-27T08:21:59.171Z,1009.92
2018-04-27T08:22:38.151Z,1009.88
2018-04-27T08:23:38.184Z,1009.87
2018-04-27T08:24:59.168Z,1009.90
2018-04-27T08:25:38.137Z,1009.88
2018-04-27T08:26:59.150Z,1009.88
2018-04-27T08:27:38.129Z,1009.90
2018-04-27T08:28:38.194Z,1009.85
2018-04-27T08:29:59.157Z,1009.85
2018-04-27T08:30:38.172Z,1009.83
2018-04-27T08:31:59.134Z,1009.85
2018-04-27T08:32:38.113Z,1009.81
2018-04-27T08:33:38.139Z,1009.78
2018-04-27T08:34:59.108Z,1009.76
2018-04-27T08:35:38.109Z,1009.76
2018-04-27T08:36:59.099Z,1009.75
2018-04-27T08:37:38.117Z,1009.75
2018-04-27T08:38:38.093Z,1009.77
2018-04-27T08:39:59.111Z,1009.73
2018-04-27T08:40:38.093Z,1009.76
2018-04-27T08:41:59.103Z,1009.72
2018-04-27T08:42:38.073Z,1009.72
2018-04-27T08:43:38.062Z,1009.71
2018-04-27T08:44:59.112Z,1009.69
2018-04-27T08:45:38.086Z,1009.69
2018-04-27T08:46:59.083Z,1009.60
2018-04-27T08:47:38.069Z,1009.65
2018-04-27T08:48:38.051Z,1009.65
2018-04-27T08:49:59.037Z,1009.62
2018-04-27T08:50:38.064Z,1009.65
2018-04-27T08:51:59.048Z,1009.61
2018-04-27T08:52:38.043Z,1009.58
2018-04-27T08:53:38.002Z,1009.60
2018-04-27T08:54:59.018Z,1009.58
2018-04-27T08:55:38.039Z,1009.53
2018-04-27T08:56:59.019Z,1009.56
2018-04-27T08:57:37.998Z,1009.55
2018-04-27T08:58:38.005Z,1009.56
2018-04-27T08:59:59.028Z,1009.54
2018-04-27T09:00:37.978Z,1009.52
2018-04-27T09:01:58.976Z,1009.55
2018-04-27T09:02:38.021Z,1009.52
2018-04-27T09:03:38.001Z,1009.51
2018-04-27T09:04:58.989Z,1009.50
2018-04-27T09:05:38.007Z,1009.48
2018-04-27T09:06:58.958Z,1009.46
2018-04-27T09:07:37.974Z,1009.43
2018-04-27T09:08:37.950Z,1009.40
2018-04-27T09:09:58.965Z,1009.40
2018-04-27T09:10:37.960Z,1009.36
2018-04-27T09:11:58.960Z,1009.42
2018-04-27T09:12:37.964Z,1009.39
2018-04-27T09:13:37.910Z,1009.41
2018-04-27T09:14:58.906Z,1009.37
2018-04-27T09:15:37.927Z,1009.34
2018-04-27T09:16:58.928Z,1009.34
2018-04-27T09:17:37.912Z,1009.26
2018-04-27T09:18:37.968Z,1009.24
2018-04-27T09:19:58.910Z,1009.31
2018-04-27T09:20:37.902Z,1009.28
2018-04-27T09:21:58.927Z,1009.27
2018-04-27T09:22:37.888Z,1009.25
2018-04-27T09:23:37.890Z,1009.24
2018-04-27T09:24:58.887Z,1009.26
2018-04-27T09:25:37.883Z,1009.25
2018-04-27T09:26:58.950Z,1009.33
2018-04-27T09:27:37.876Z,1009.24
2018-04-27T09:28:37.868Z,1009.23
2018-04-27T09:29:58.911Z,1009.26
2018-04-27T09:30:37.868Z,1009.24
2018-04-27T09:31:58.867Z,1009.32
2018-04-27T09:32:37.862Z,1009.27
2018-04-27T09:33:37.853Z,1009.16
2018-04-27T09:34:58.852Z,1009.08
2018-04-27T09:35:37.836Z,1009.07
2018-04-27T09:36:58.836Z,1009.04
2018-04-27T09:37:37.852Z,1009.09
2018-04-27T09:38:37.866Z,1009.00
2018-04-27T09:39:58.825Z,1008.96
2018-04-27T09:40:37.816Z,1008.97
2018-04-27T09:41:58.822Z,1008.95
2018-04-27T09:42:37.831Z,1008.88
2018-04-27T09:43:37.827Z,1008.88
2018-04-27T09:44:58.823Z,1008.88
2018-04-27T09:45:37.797Z,1008.85
2018-04-27T09:46:58.809Z,1008.88
2018-04-27T09:47:37.761Z,1008.86
2018-04-27T09:48:37.798Z,1008.85
2018-04-27T09:49:58.855Z,1008.84
2018-04-27T09:50:37.804Z,1008.86
2018-04-27T09:51:58.796Z,1008.84
2018-04-27T09:52:37.763Z,1008.80
2018-04-27T09:53:37.790Z,1008.78
2018-04-27T09:54:58.785Z,1008.69
2018-04-27T09:55:37.756Z,1008.74
2018-04-27T09:56:58.771Z,1008.69
2018-04-27T09:57:37.792Z,1008.65
2018-04-27T09:58:37.717Z,1008.67
2018-04-27T09:59:58.734Z,1008.69
2018-04-27T10:00:37.765Z,1008.60
2018-04-27T10:01:58.786Z,1008.61
2018-04-27T10:02:37.702Z,1008.59
2018-04-27T10:03:37.700Z,1008.56
2018-04-27T10:04:58.712Z,1008.56
2018-04-27T10:05:37.725Z,1008.54
2018-04-27T10:06:58.725Z,1008.53
2018-04-27T10:07:37.700Z,1008.51
2018-04-27T10:08:37.691Z,1008.53
2018-04-27T10:09:58.702Z,1008.46
2018-04-27T10:10:37.685Z,1008.41
2018-04-27T10:11:58.713Z,1008.36
2018-04-27T10:12:37.665Z,1008.30
2018-04-27T10:13:37.749Z,1008.34
2018-04-27T10:14:58.709Z,1008.32
2018-04-27T10:15:37.681Z,1008.30
2018-04-27T10:16:58.724Z,1008.26
2018-04-27T10:17:37.750Z,1008.22
2018-04-27T10:18:37.673Z,1008.22
2018-04-27T10:19:58.696Z,1008.21
2018-04-27T10:20:37.666Z,1008.17
2018-04-27T10:21:58.674Z,1008.16
2018-04-27T10:22:37.648Z,1008.14
2018-04-27T10:23:37.680Z,1008.12
2018-04-27T10:24:58.653Z,1008.08
2018-04-27T10:25:37.613Z,1008.17
2018-04-27T10:26:58.628Z,1008.11
2018-04-27T10:27:37.619Z,1008.08
2018-04-27T10:28:37.671Z,1008.07
2018-04-27T10:29:58.634Z,1007.97
2018-04-27T10:30:37.638Z,1008.00
2018-04-27T10:31:58.616Z,1007.97
2018-04-27T10:32:37.644Z,1008.00
2018-04-27T10:33:37.635Z,1007.91
2018-04-27T10:34:58.638Z,1007.93
2018-04-27T10:35:37.592Z,1008.02
2018-04-27T10:36:58.596Z,1007.99
2018-04-27T10:37:37.606Z,1008.04
2018-04-27T10:38:37.583Z,1008.03
2018-04-27T10:39:58.585Z,1008.01
2018-04-27T10:40:37.596Z,1007.98
2018-04-27T10:41:58.575Z,1008.00
2018-04-27T10:42:37.536Z,1008.05
2018-04-27T10:43:37.536Z,1008.06
2018-04-27T10:44:58.585Z,1008.02
2018-04-27T10:45:37.544Z,1008.08
2018-04-27T10:46:58.557Z,1008.07
2018-04-27T10:47:37.511Z,1008.03
2018-04-27T10:48:37.556Z,1007.95
2018-04-27T10:49:58.555Z,1007.90
2018-04-27T10:50:37.515Z,1007.88
2018-04-27T10:51:58.549Z,1007.82
2018-04-27T10:52:37.588Z,1007.79
2018-04-27T10:53:37.546Z,1007.78
2018-04-27T10:54:58.509Z,1007.78
2018-04-27T10:55:37.486Z,1007.71
2018-04-27T10:56:58.515Z,1007.68
2018-04-27T10:57:37.503Z,1007.66
2018-04-27T10:58:37.516Z,1007.68
2018-04-27T10:59:58.481Z,1007.61
2018-04-27T11:00:37.517Z,1007.57
2018-04-27T11:01:58.461Z,1007.55
2018-04-27T11:02:37.456Z,1007.55
2018-04-27T11:03:37.457Z,1007.63
2018-04-27T11:04:58.452Z,1007.58
2018-04-27T11:05:37.487Z,1007.60
2018-04-27T11:06:58.469Z,1007.57
2018-04-27T11:07:37.478Z,1007.57
2018-04-27T11:08:37.468Z,1007.53
2018-04-27T11:09:58.471Z,1007.50
2018-04-27T11:10:37.408Z,1007.50
2018-04-27T11:11:58.433Z,1007.48
2018-04-27T11:12:37.432Z,1007.54
2018-04-27T11:13:37.431Z,1007.51
2018-04-27T11:14:58.445Z,1007.49
2018-04-27T11:15:37.420Z,1007.47
2018-04-27T11:16:58.618Z,1007.44
2018-04-27T11:17:37.413Z,1007.43
2018-04-27T11:18:37.383Z,1007.34
2018-04-27T11:19:58.433Z,1007.35
2018-04-27T11:20:37.398Z,1007.32
2018-04-27T11:21:58.401Z,1007.31
2018-04-27T11:22:37.373Z,1007.41
2018-04-27T11:23:37.387Z,1007.30
2018-04-27T11:24:58.437Z,1007.39
2018-04-27T11:25:37.355Z,1007.41
2018-04-27T11:26:58.366Z,1007.43
2018-04-27T11:27:37.399Z,1007.38
2018-04-27T11:28:37.371Z,1007.32
2018-04-27T11:29:58.353Z,1007.28
2018-04-27T11:30:37.355Z,1007.32
2018-04-27T11:31:58.340Z,1007.29
2018-04-27T11:32:37.357Z,1007.30
2018-04-27T11:33:37.330Z,1007.22
2018-04-27T11:34:58.363Z,1007.24
2018-04-27T11:35:37.316Z,1007.23
2018-04-27T11:36:58.355Z,1007.19
2018-04-27T11:37:37.367Z,1007.16
2018-04-27T11:38:37.384Z,1007.15
2018-04-27T11:39:58.363Z,1007.05
2018-04-27T11:40:37.326Z,1007.08
2018-04-27T11:41:58.302Z,1007.09
2018-04-27T11:42:37.315Z,1007.09
2018-04-27T11:43:37.370Z,1007.03
2018-04-27T11:44:58.363Z,1007.01
2018-04-27T11:45:37.261Z,1006.95
2018-04-27T11:46:58.295Z,1006.94
2018-04-27T11:47:37.277Z,1006.88
2018-04-27T11:48:37.326Z,1006.94
2018-04-27T11:49:58.321Z,1006.92
2018-04-27T11:50:37.297Z,1006.90
2018-04-27T11:51:58.280Z,1006.81
2018-04-27T11:52:37.240Z,1006.77
2018-04-27T11:53:37.253Z,1006.75
2018-04-27T11:54:58.293Z,1006.77
2018-04-27T11:55:37.250Z,1006.71
2018-04-27T11:56:58.315Z,1006.79
2018-04-27T11:57:37.186Z,1006.69
2018-04-27T11:58:37.271Z,1006.72
2018-04-27T11:59:58.234Z,1006.70
2018-04-27T12:00:37.218Z,1006.67
2018-04-27T12:01:58.254Z,1006.59
2018-04-27T12:02:37.223Z,1006.55
2018-04-27T12:03:37.216Z,1006.50
2018-04-27T12:04:58.219Z,1006.42